createdAt,value
2023-05-20T00:00:21.912Z,7.40
2023-05-20T00:02:54.693Z,7.50
2023-05-20T00:05:27.001Z,7.10
2023-05-20T00:08:00.956Z,7.88
2023-05-20T00:10:32.914Z,7.88
2023-05-20T00:13:05.683Z,8.02
2023-05-20T00:15:37.871Z,7.40
2023-05-20T00:18:11.065Z,8.23
2023-05-20T00:20:43.601Z,7.40
2023-05-20T00:23:15.772Z,7.50
2023-05-20T00:25:48.537Z,7.63
2023-05-20T00:28:21.555Z,7.80
2023-05-20T00:30:55.401Z,7.97
2023-05-20T00:33:27.386Z,7.47
2023-05-20T00:36:00.208Z,7.22
2023-05-20T00:38:32.701Z,8.30
2023-05-20T00:41:04.762Z,7.88
2023-05-20T00:43:37.721Z,7.25
2023-05-20T00:46:13.161Z,7.75
2023-05-20T00:48:45.724Z,7.80
2023-05-20T00:51:20.962Z,7.38
2023-05-20T00:53:53.633Z,7.50
2023-05-20T00:56:26.584Z,7.35
2023-05-20T00:58:59.788Z,7.57
2023-05-20T01:01:32.920Z,7.38
2023-05-20T01:04:05.989Z,7.57
2023-05-20T01:06:38.790Z,7.78
2023-05-20T01:09:11.192Z,7.80
2023-05-20T01:11:52.901Z,7.57
2023-05-20T01:14:31.149Z,7.60
2023-05-20T01:17:10.047Z,7.57
2023-05-20T01:19:44.130Z,7.97
2023-05-20T01:22:17.422Z,8.55
2023-05-20T01:24:49.423Z,7.70
2023-05-20T01:27:23.482Z,8.27
2023-05-20T01:29:55.413Z,7.80
2023-05-20T01:32:53.407Z,7.20
2023-05-20T01:35:25.898Z,6.97
2023-05-20T01:37:59.503Z,6.07
2023-05-20T01:40:32.983Z,7.15
2023-05-20T01:43:27.930Z,6.72
2023-05-20T01:46:03.244Z,6.28
2023-05-20T01:48:36.612Z,6.78
2023-05-20T01:51:08.911Z,6.20
2023-05-20T01:53:42.894Z,6.88
2023-05-20T01:56:15.275Z,6.85
2023-05-20T01:58:48.106Z,6.28
2023-05-20T02:01:20.529Z,6.82
2023-05-20T02:03:53.845Z,6.85
2023-05-20T02:06:26.226Z,6.40
2023-05-20T02:09:01.039Z,7.13
2023-05-20T02:11:32.964Z,6.45
2023-05-20T02:14:05.955Z,6.88
2023-05-20T02:16:38.078Z,6.68
2023-05-20T02:19:13.267Z,6.77
2023-05-20T02:21:47.378Z,6.38
2023-05-20T02:24:21.576Z,5.95
2023-05-20T02:26:54.819Z,7.07
2023-05-20T02:29:27.760Z,6.57
2023-05-20T02:31:59.834Z,7.55
2023-05-20T02:34:34.375Z,7.43
2023-05-20T02:37:06.298Z,7.45
2023-05-20T02:39:39.077Z,7.50
2023-05-20T02:42:12.251Z,7.45
2023-05-20T02:44:44.840Z,7.43
2023-05-20T02:47:17.431Z,7.25
2023-05-20T02:49:50.769Z,7.10
2023-05-20T02:52:23.143Z,6.85
2023-05-20T02:54:56.856Z,6.88
2023-05-20T02:57:29.253Z,7.72
2023-05-20T03:00:03.186Z,7.28
2023-05-20T03:02:57.666Z,7.57
2023-05-20T03:05:30.053Z,7.68
2023-05-20T03:08:02.666Z,7.43
2023-05-20T03:10:35.547Z,7.78
2023-05-20T03:13:09.962Z,7.55
2023-05-20T03:15:47.779Z,7.63
2023-05-20T03:18:20.452Z,8.75
2023-05-20T03:20:56.599Z,9.05
2023-05-20T03:23:29.204Z,8.27
2023-05-20T03:26:02.210Z,9.02
2023-05-20T03:28:34.225Z,7.68
2023-05-20T03:31:07.125Z,7.40
2023-05-20T03:33:40.570Z,7.70
2023-05-20T03:36:13.275Z,8.05
2023-05-20T03:38:45.848Z,7.93
2023-05-20T03:41:17.834Z,7.50
2023-05-20T03:43:51.467Z,7.57
2023-05-20T03:46:23.918Z,7.97
2023-05-20T03:48:56.299Z,7.63
2023-05-20T03:51:29.660Z,8.05
2023-05-20T03:54:09.108Z,8.65
2023-05-20T03:56:41.502Z,8.60
2023-05-20T03:59:13.482Z,8.43
2023-05-20T04:01:46.692Z,7.90
2023-05-20T04:04:19.182Z,7.88
2023-05-20T04:06:52.503Z,8.45
2023-05-20T04:09:25.585Z,8.30
2023-05-20T04:12:01.015Z,8.07
2023-05-20T04:14:36.982Z,7.85
2023-05-20T04:17:09.596Z,8.52
2023-05-20T04:19:43.086Z,8.40
2023-05-20T04:22:17.594Z,7.65
2023-05-20T04:24:50.458Z,7.80
2023-05-20T04:27:23.710Z,7.60
2023-05-20T04:29:59.149Z,7.82
2023-05-20T04:32:31.854Z,8.05
2023-05-20T04:35:09.426Z,7.18
2023-05-20T04:37:42.377Z,8.38
2023-05-20T04:40:20.006Z,8.07
2023-05-20T04:42:52.144Z,7.47
2023-05-20T04:45:26.989Z,9.07
2023-05-20T04:47:59.693Z,7.45
2023-05-20T04:50:32.587Z,8.05
2023-05-20T04:53:04.545Z,7.25
2023-05-20T04:55:37.826Z,8.93
2023-05-20T04:58:15.233Z,7.90
2023-05-20T05:00:48.028Z,7.57
2023-05-20T05:03:20.632Z,7.63
2023-05-20T05:05:58.781Z,7.63
2023-05-20T05:08:31.891Z,7.53
2023-05-20T05:11:07.318Z,7.68
2023-05-20T05:13:39.401Z,7.25
2023-05-20T05:16:12.232Z,7.80
2023-05-20T05:18:44.361Z,7.35
2023-05-20T05:21:17.248Z,7.00
2023-05-20T05:23:52.597Z,6.78
2023-05-20T05:26:25.541Z,7.05
2023-05-20T05:28:57.974Z,6.72
2023-05-20T05:31:30.018Z,6.95
2023-05-20T05:34:02.947Z,7.15
2023-05-20T05:36:35.015Z,7.50
2023-05-20T05:39:08.525Z,6.80
2023-05-20T05:41:42.105Z,7.20
2023-05-20T05:44:15.763Z,6.65
2023-05-20T05:46:48.353Z,6.72
2023-05-20T05:49:21.239Z,7.18
2023-05-20T05:51:54.373Z,7.03
2023-05-20T05:54:27.217Z,6.30
2023-05-20T05:57:03.219Z,6.70
2023-05-20T05:59:37.678Z,6.07
2023-05-20T06:02:11.279Z,6.18
2023-05-20T06:04:43.718Z,6.20
2023-05-20T06:07:17.139Z,7.32
2023-05-20T06:09:49.537Z,6.80
2023-05-20T06:12:22.571Z,8.30
2023-05-20T06:14:54.539Z,6.82
2023-05-20T06:17:27.532Z,8.10
2023-05-20T06:20:00.121Z,8.55
2023-05-20T06:22:36.292Z,8.05
2023-05-20T06:25:10.036Z,8.20
2023-05-20T06:27:42.527Z,7.63
2023-05-20T06:30:18.198Z,7.05
2023-05-20T06:32:50.578Z,6.55
2023-05-20T06:40:05.932Z,6.50
2023-05-20T06:42:41.883Z,5.97
2023-05-20T06:45:14.793Z,5.47
2023-05-20T06:51:13.396Z,5.67
2023-05-20T06:53:45.729Z,5.38
2023-05-20T06:56:20.267Z,4.93
2023-05-20T06:58:52.443Z,4.80
2023-05-20T07:01:25.282Z,4.93
2023-05-20T07:03:57.472Z,5.00
2023-05-20T07:06:31.911Z,4.70
2023-05-20T07:09:05.393Z,5.10
2023-05-20T07:11:38.763Z,4.78
2023-05-20T07:14:11.904Z,4.88
2023-05-20T07:16:43.880Z,6.10
2023-05-20T07:19:16.726Z,7.43
2023-05-20T07:21:50.408Z,13.85
2023-05-20T07:24:40.605Z,6.57
2023-05-20T07:27:14.140Z,5.18
2023-05-20T07:29:46.253Z,5.43
2023-05-20T07:32:19.518Z,5.60
2023-05-20T07:34:52.046Z,5.28
2023-05-20T07:37:24.977Z,5.30
2023-05-20T07:39:58.552Z,5.63
2023-05-20T07:42:31.047Z,5.17
2023-05-20T07:45:07.209Z,5.72
2023-05-20T07:47:40.175Z,5.80
2023-05-20T07:50:13.153Z,5.75
2023-05-20T07:52:55.865Z,5.10
2023-05-20T07:55:37.243Z,5.37
2023-05-20T07:58:10.629Z,6.10
2023-05-20T08:00:44.381Z,5.63
2023-05-20T08:03:17.818Z,5.75
2023-05-20T08:06:13.154Z,5.07
2023-05-20T08:08:46.249Z,5.60
2023-05-20T08:11:25.097Z,5.32
2023-05-20T08:13:57.666Z,5.53
2023-05-20T08:16:32.720Z,5.68
2023-05-20T08:19:05.014Z,5.95
2023-05-20T08:21:37.965Z,5.60
2023-05-20T08:24:09.934Z,5.68
2023-05-20T08:26:42.751Z,5.90
2023-05-20T08:29:14.732Z,5.95
2023-05-20T08:31:47.558Z,6.18
2023-05-20T08:34:21.005Z,6.17
2023-05-20T08:36:53.885Z,6.00
2023-05-20T08:39:27.218Z,6.78
2023-05-20T08:42:03.851Z,6.50
2023-05-20T08:44:36.281Z,6.43
2023-05-20T08:47:10.833Z,6.30
2023-05-20T08:49:42.870Z,6.50
2023-05-20T08:52:19.366Z,7.03
2023-05-20T08:54:52.532Z,6.47
2023-05-20T08:57:25.310Z,6.50
2023-05-20T08:59:57.614Z,6.10
2023-05-20T09:02:30.048Z,6.57
2023-05-20T09:05:02.447Z,6.50
2023-05-20T09:07:35.352Z,6.40
2023-05-20T09:10:09.034Z,7.15
2023-05-20T09:12:41.045Z,5.83
2023-05-20T09:15:14.263Z,7.00
2023-05-20T09:17:49.672Z,6.72
2023-05-20T09:20:23.789Z,7.25
2023-05-20T09:23:03.475Z,5.93
2023-05-20T09:25:37.698Z,6.00
2023-05-20T09:28:12.259Z,6.03
2023-05-20T09:30:45.887Z,5.97
2023-05-20T09:33:18.985Z,6.13
2023-05-20T09:35:51.220Z,6.18
2023-05-20T09:38:23.652Z,6.47
2023-05-20T09:40:56.228Z,6.57
2023-05-20T09:43:29.196Z,6.75
2023-05-20T09:46:02.722Z,5.90
2023-05-20T09:48:39.797Z,6.13
2023-05-20T09:51:14.336Z,6.03
2023-05-20T09:53:46.812Z,5.68
2023-05-20T09:56:22.510Z,5.55
2023-05-20T09:58:58.766Z,6.05
2023-05-20T10:01:30.803Z,6.20
2023-05-20T10:04:07.290Z,5.83
2023-05-20T10:07:44.573Z,5.55
2023-05-20T10:10:53.872Z,5.75
2023-05-20T10:13:49.861Z,5.63
2023-05-20T10:16:48.873Z,5.85
2023-05-20T10:19:34.018Z,6.30
2023-05-20T10:22:12.363Z,6.07
2023-05-20T10:24:44.822Z,5.70
2023-05-20T10:27:18.875Z,6.18
2023-05-20T10:29:58.383Z,5.95
2023-05-20T10:32:32.492Z,6.30
2023-05-20T10:35:10.061Z,5.90
2023-05-20T10:37:45.731Z,5.60
2023-05-20T10:40:20.997Z,5.88
2023-05-20T10:42:53.430Z,5.68
2023-05-20T10:45:27.714Z,6.30
2023-05-20T10:48:00.848Z,6.22
2023-05-20T10:50:41.541Z,5.93
2023-05-20T10:53:25.674Z,6.05
2023-05-20T10:56:07.272Z,5.75
2023-05-20T10:58:39.691Z,6.13
2023-05-20T11:01:14.531Z,5.63
2023-05-20T11:03:49.844Z,6.20
2023-05-20T11:06:32.042Z,6.38
2023-05-20T11:09:06.727Z,6.07
2023-05-20T11:11:39.086Z,6.23
2023-05-20T11:14:15.207Z,6.05
2023-05-20T11:16:53.678Z,6.47
2023-05-20T11:19:27.113Z,6.32
2023-05-20T11:22:00.055Z,5.97
2023-05-20T11:24:33.608Z,6.53
2023-05-20T11:27:07.364Z,5.95
2023-05-20T11:29:40.673Z,6.07
2023-05-20T11:32:13.324Z,6.28
2023-05-20T11:34:45.967Z,6.35
2023-05-20T11:37:20.096Z,6.07
2023-05-20T11:40:08.887Z,5.93
2023-05-20T11:42:45.690Z,6.15
2023-05-20T11:45:18.543Z,6.22
2023-05-20T11:48:02.443Z,6.10
2023-05-20T11:50:41.210Z,6.23
2023-05-20T11:53:23.277Z,5.57
2023-05-20T11:56:00.810Z,5.40
2023-05-20T11:58:33.926Z,5.60
2023-05-20T12:01:20.928Z,5.80
2023-05-20T12:03:55.282Z,5.40
2023-05-20T12:06:28.192Z,5.68
2023-05-20T12:09:07.385Z,5.68
2023-05-20T12:11:41.571Z,5.68
2023-05-20T12:14:15.882Z,6.00
2023-05-20T12:16:48.200Z,5.40
2023-05-20T12:19:21.671Z,5.20
2023-05-20T12:21:54.131Z,5.63
2023-05-20T12:24:27.090Z,5.40
2023-05-20T12:26:59.436Z,5.90
2023-05-20T12:29:31.880Z,6.10
2023-05-20T12:32:05.335Z,5.10
2023-05-20T12:34:39.107Z,5.22
2023-05-20T12:37:11.064Z,5.93
2023-05-20T12:39:44.865Z,5.68
2023-05-20T12:42:17.218Z,5.40
2023-05-20T12:44:49.700Z,5.57
2023-05-20T12:47:22.724Z,5.50
2023-05-20T12:49:55.088Z,5.38
2023-05-20T12:52:28.163Z,5.35
2023-05-20T12:55:00.684Z,5.43
2023-05-20T12:57:33.048Z,5.63
2023-05-20T13:00:06.461Z,5.47
2023-05-20T13:02:42.284Z,5.60
2023-05-20T13:05:15.078Z,5.55
2023-05-20T13:07:47.887Z,4.90
2023-05-20T13:10:20.083Z,5.65
2023-05-20T13:12:53.742Z,5.32
2023-05-20T13:15:26.782Z,5.38
2023-05-20T13:18:01.836Z,5.55
2023-05-20T13:20:34.150Z,5.13
2023-05-20T13:23:08.128Z,5.60
2023-05-20T13:25:40.128Z,5.32
2023-05-20T13:28:16.971Z,4.97
2023-05-20T13:30:49.397Z,6.00
2023-05-20T13:33:25.393Z,5.93
2023-05-20T13:35:57.735Z,5.30
2023-05-20T13:38:30.909Z,5.38
2023-05-20T13:41:03.735Z,5.65
2023-05-20T13:43:36.195Z,5.32
2023-05-20T13:46:08.397Z,5.93
2023-05-20T13:48:41.246Z,5.65
2023-05-20T13:51:13.203Z,5.13
2023-05-20T13:53:46.431Z,5.38
2023-05-20T13:56:18.717Z,5.45
2023-05-20T13:58:51.556Z,5.20
2023-05-20T14:01:24.070Z,5.45
2023-05-20T14:03:57.013Z,5.50
2023-05-20T14:06:31.891Z,5.13
2023-05-20T14:09:05.015Z,5.43
2023-05-20T14:11:37.873Z,5.33
2023-05-20T14:14:10.775Z,4.60
2023-05-20T14:16:42.849Z,5.53
2023-05-20T14:19:16.032Z,5.47
2023-05-20T14:21:48.001Z,5.28
2023-05-20T14:24:22.931Z,5.20
2023-05-20T14:26:56.179Z,5.10
2023-05-20T14:29:29.575Z,4.60
2023-05-20T14:32:04.072Z,4.93
2023-05-20T14:34:37.903Z,5.00
2023-05-20T14:37:11.854Z,4.80
2023-05-20T14:39:44.212Z,4.68
2023-05-20T14:42:16.760Z,4.72
2023-05-20T14:44:49.804Z,4.72
2023-05-20T14:47:22.870Z,5.10
2023-05-20T14:49:54.988Z,5.30
2023-05-20T14:52:27.762Z,5.10
2023-05-20T14:54:59.824Z,4.90
2023-05-20T14:57:34.465Z,5.38
2023-05-20T15:00:09.163Z,5.03
2023-05-20T15:02:41.506Z,5.60
2023-05-20T15:05:15.234Z,6.03
2023-05-20T15:07:47.573Z,5.28
2023-05-20T15:10:20.427Z,6.20
2023-05-20T15:12:53.445Z,4.70
2023-05-20T15:15:26.319Z,5.80
2023-05-20T15:17:58.287Z,5.70
2023-05-20T15:20:31.362Z,5.47
2023-05-20T15:23:04.181Z,5.13
2023-05-20T15:25:37.200Z,5.60
2023-05-20T15:28:10.548Z,5.20
2023-05-20T15:30:43.701Z,5.07
2023-05-20T15:33:15.669Z,5.43
2023-05-20T15:35:49.004Z,5.50
2023-05-20T15:38:21.301Z,5.60
2023-05-20T15:40:53.857Z,5.10
2023-05-20T15:43:26.131Z,5.70
2023-05-20T15:45:59.317Z,5.88
2023-05-20T15:48:34.704Z,6.00
2023-05-20T15:51:07.410Z,5.65
2023-05-20T15:53:40.857Z,6.03
2023-05-20T15:56:13.772Z,6.32
2023-05-20T15:58:46.134Z,5.65
2023-05-20T16:01:18.534Z,5.70
2023-05-20T16:03:51.374Z,5.50
2023-05-20T16:06:24.590Z,5.67
2023-05-20T16:08:56.908Z,5.95
2023-05-20T16:11:32.425Z,5.30
2023-05-20T16:14:04.802Z,5.78
2023-05-20T16:16:37.060Z,6.00
2023-05-20T16:19:09.868Z,6.00
2023-05-20T16:21:42.313Z,5.82
2023-05-20T16:24:15.334Z,5.38
2023-05-20T16:26:48.195Z,6.45
2023-05-20T16:29:20.133Z,5.97
2023-05-20T16:31:53.196Z,6.17
2023-05-20T16:34:25.868Z,6.22
2023-05-20T16:37:20.953Z,5.38
2023-05-20T16:39:52.901Z,5.68
2023-05-20T16:42:26.463Z,6.50
2023-05-20T16:44:58.439Z,6.03
2023-05-20T16:47:33.264Z,6.70
2023-05-20T16:50:05.925Z,6.10
2023-05-20T16:52:38.793Z,5.75
2023-05-20T16:55:11.425Z,6.40
2023-05-20T16:57:44.262Z,5.70
2023-05-20T17:00:16.515Z,6.25
2023-05-20T17:02:49.281Z,6.45
2023-05-20T17:05:21.813Z,5.93
2023-05-20T17:07:59.285Z,6.13
2023-05-20T17:10:31.800Z,5.70
2023-05-20T17:13:04.403Z,5.55
2023-05-20T17:15:37.325Z,6.03
2023-05-20T17:18:09.798Z,6.63
2023-05-20T17:20:41.819Z,6.22
2023-05-20T17:23:15.268Z,5.97
2023-05-20T17:25:47.299Z,5.88
2023-05-20T17:28:22.828Z,5.70
2023-05-20T17:30:55.155Z,5.45
2023-05-20T17:33:27.600Z,5.53
2023-05-20T17:35:59.768Z,5.27
2023-05-20T17:38:32.548Z,5.85
2023-05-20T17:41:04.741Z,6.38
2023-05-20T17:43:38.132Z,5.88
2023-05-20T17:46:10.959Z,5.50
2023-05-20T17:48:45.247Z,6.43
2023-05-20T17:51:17.243Z,6.60
2023-05-20T17:53:50.030Z,7.38
2023-05-20T17:56:25.395Z,6.22
2023-05-20T17:58:57.362Z,7.07
2023-05-20T18:01:30.534Z,6.90
2023-05-20T18:04:05.743Z,6.85
2023-05-20T18:06:38.894Z,7.18
2023-05-20T18:09:11.693Z,6.90
2023-05-20T18:11:44.041Z,6.93
2023-05-20T18:14:19.050Z,7.87
2023-05-20T18:16:51.416Z,7.15
2023-05-20T18:19:27.015Z,6.60
2023-05-20T18:21:59.723Z,6.97
2023-05-20T18:24:32.635Z,6.70
2023-05-20T18:27:04.879Z,6.90
2023-05-20T18:29:37.595Z,6.97
2023-05-20T18:32:09.835Z,7.18
2023-05-20T18:34:42.641Z,7.72
2023-05-20T18:37:15.379Z,7.00
2023-05-20T18:39:48.222Z,7.07
2023-05-20T18:42:20.952Z,7.20
2023-05-20T18:44:53.953Z,7.07
2023-05-20T18:47:26.791Z,7.97
2023-05-20T18:49:59.561Z,7.90
2023-05-20T18:52:32.195Z,7.50
2023-05-20T18:55:05.138Z,8.52
2023-05-20T18:57:38.065Z,9.10
2023-05-20T19:00:13.110Z,8.40
2023-05-20T19:02:45.665Z,8.98
2023-05-20T19:05:18.369Z,8.20
2023-05-20T19:07:50.773Z,8.45
2023-05-20T19:10:23.679Z,8.05
2023-05-20T19:12:56.130Z,8.15
2023-05-20T19:15:30.594Z,7.70
2023-05-20T19:18:03.510Z,7.33
2023-05-20T19:20:35.686Z,7.63
2023-05-20T19:23:08.836Z,7.90
2023-05-20T19:25:40.748Z,8.00
2023-05-20T19:28:14.000Z,7.22
2023-05-20T19:30:46.541Z,7.23
2023-05-20T19:33:18.548Z,7.15
2023-05-20T19:35:51.715Z,7.40
2023-05-20T19:38:24.470Z,7.20
2023-05-20T19:40:56.913Z,7.68
2023-05-20T19:43:30.972Z,7.30
2023-05-20T19:46:03.041Z,7.65
2023-05-20T19:48:36.469Z,7.15
2023-05-20T19:51:10.418Z,7.20
2023-05-20T19:53:43.202Z,7.20
2023-05-20T19:56:19.362Z,7.20
2023-05-20T19:58:52.385Z,7.18
2023-05-20T20:01:24.884Z,7.18
2023-05-20T20:03:58.064Z,8.25
2023-05-20T20:06:29.977Z,7.30
2023-05-20T20:09:06.370Z,7.73
2023-05-20T20:11:38.323Z,7.65
2023-05-20T20:14:10.773Z,7.68
2023-05-20T20:16:48.686Z,8.73
2023-05-20T20:19:23.242Z,8.18
2023-05-20T20:21:58.773Z,8.17
2023-05-20T20:24:31.534Z,8.40
2023-05-20T20:27:06.204Z,8.68
2023-05-20T20:29:38.579Z,8.40
2023-05-20T20:32:10.946Z,9.10
2023-05-20T20:34:43.814Z,8.87
2023-05-20T20:37:15.830Z,7.57
2023-05-20T20:39:50.401Z,8.77
2023-05-20T20:42:24.655Z,8.20
2023-05-20T20:44:56.993Z,7.72
2023-05-20T20:47:30.375Z,7.70
2023-05-20T20:50:03.737Z,7.75
2023-05-20T20:52:39.079Z,8.27
2023-05-20T20:55:11.870Z,8.38
2023-05-20T20:57:45.257Z,8.65
2023-05-20T21:00:21.250Z,8.30
2023-05-20T21:02:53.684Z,9.07
2023-05-20T21:05:26.542Z,9.60
2023-05-20T21:07:59.928Z,9.95
2023-05-20T21:10:33.539Z,9.45
2023-05-20T21:13:05.965Z,8.50
2023-05-20T21:15:38.026Z,8.73
2023-05-20T21:18:11.809Z,8.20
2023-05-20T21:20:43.716Z,9.07
2023-05-20T21:23:16.533Z,8.68
2023-05-20T21:26:08.182Z,8.90
2023-05-20T21:28:40.117Z,7.40
2023-05-20T21:31:14.221Z,7.70
2023-05-20T21:33:46.172Z,8.15
2023-05-20T21:36:18.990Z,7.97
2023-05-20T21:38:50.953Z,8.20
2023-05-20T21:41:27.259Z,7.75
2023-05-20T21:44:00.371Z,8.75
2023-05-20T21:46:34.049Z,8.55
2023-05-20T21:49:06.458Z,8.63
2023-05-20T21:51:39.279Z,8.17
2023-05-20T21:54:11.686Z,8.32
2023-05-20T21:56:44.116Z,8.63
2023-05-20T21:59:16.527Z,8.80
2023-05-20T22:01:51.647Z,8.60
2023-05-20T22:04:25.201Z,8.57
2023-05-20T22:06:57.635Z,9.85
2023-05-20T22:09:30.057Z,8.88
2023-05-20T22:12:02.210Z,8.05
2023-05-20T22:14:35.191Z,9.57
2023-05-20T22:17:07.108Z,9.67
2023-05-20T22:19:40.571Z,8.82
2023-05-20T22:22:13.749Z,9.65
2023-05-20T22:24:46.247Z,9.48
2023-05-20T22:27:18.146Z,7.90
2023-05-20T22:29:50.950Z,8.27
2023-05-20T22:32:23.390Z,8.25
2023-05-20T22:34:58.878Z,8.25
2023-05-20T22:37:31.577Z,8.48
2023-05-20T22:40:04.182Z,8.32
2023-05-20T22:42:36.503Z,9.00
2023-05-20T22:45:09.994Z,8.75
2023-05-20T22:47:42.427Z,8.13
2023-05-20T22:50:14.483Z,8.07
2023-05-20T22:52:47.244Z,8.20
2023-05-20T22:55:20.013Z,9.03
2023-05-20T23:00:45.778Z,7.43
2023-05-20T23:03:18.634Z,9.57
2023-05-20T23:05:51.122Z,9.30
2023-05-20T23:08:23.893Z,8.03
2023-05-20T23:10:56.453Z,8.80
2023-05-20T23:13:28.820Z,8.60
2023-05-20T23:16:02.088Z,7.78
2023-05-20T23:18:36.002Z,8.23
2023-05-20T23:21:08.236Z,10.10
2023-05-20T23:23:41.049Z,9.50
2023-05-20T23:26:12.987Z,9.52
2023-05-20T23:28:46.155Z,8.23
2023-05-20T23:31:19.068Z,9.05
2023-05-20T23:33:51.630Z,9.40
2023-05-20T23:36:25.709Z,9.25
2023-05-20T23:38:58.869Z,9.30
2023-05-20T23:41:31.004Z,8.52
2023-05-20T23:44:04.337Z,9.23
2023-05-20T23:46:38.053Z,9.50
2023-05-20T23:49:10.637Z,8.57
2023-05-20T23:51:42.974Z,8.93
2023-05-20T23:54:16.695Z,8.80
2023-05-20T23:56:49.378Z,10.57
2023-05-20T23:59:21.796Z,10.27
